Time,TemperatureF,DewpointF,PressureIn,WindDirection,WindDirectionDegrees,WindSpeedMPH,WindSpeedGustMPH,Humidity,HourlyPrecipIn,Conditions,Clouds,dailyrainin,SoftwareType,DateUTC
2013-03-23 00:04:00,32.8,23.8,30.05,East,86,0.0,1.0,69,0.00,,SKC,0.00,VWS V14.01,2013-03-23 05:04:00,
2013-03-23 00:09:00,32.8,24.1,30.05,East,86,0.0,0.0,70,0.00,,SKC,0.00,VWS V14.01,2013-03-23 05:09:00,
2013-03-23 00:14:00,32.7,24.0,30.06,East,86,0.0,0.0,70,0.00,,SKC,0.00,VWS V14.01,2013-03-23 05:14:00,
2013-03-23 00:19:00,32.7,23.7,30.06,East,86,0.0,0.0,69,0.00,,SKC,0.00,VWS V14.01,2013-03-23 05:19:00,
2013-03-23 00:24:00,32.7,23.7,30.07,East,86,0.0,0.0,69,0.00,,SKC,0.00,VWS V14.01,2013-03-23 05:24:00,
2013-03-23 00:29:00,32.7,24.0,30.07,East,86,0.0,0.0,70,0.00,,SKC,0.00,VWS V14.01,2013-03-23 05:29:00,
2013-03-23 00:34:00,32.8,24.5,30.08,East,86,0.0,0.0,71,0.00,,SKC,0.00,VWS V14.01,2013-03-23 05:34:00,
2013-03-23 00:39:00,32.8,24.8,30.08,East,86,0.0,0.0,72,0.00,,SKC,0.00,VWS V14.01,2013-03-23 05:39:00,
2013-03-23 00:44:00,32.7,24.4,30.07,East,86,0.0,0.0,71,0.00,,SKC,0.00,VWS V14.01,2013-03-23 05:44:00,
2013-03-23 00:49:00,32.6,24.2,30.06,East,86,0.0,0.0,71,0.00,,SKC,0.00,VWS V14.01,2013-03-23 05:49:00,
2013-03-23 00:54:00,32.6,24.2,30.06,East,86,2.0,2.0,71,0.00,,SKC,0.00,VWS V14.01,2013-03-23 05:54:00,
2013-03-23 00:59:00,32.5,24.2,30.06,East,86,0.0,1.0,71,0.00,,SKC,0.00,VWS V14.01,2013-03-23 05:59:00,
2013-03-23 01:05:00,32.6,23.9,30.05,East,86,2.0,3.0,70,0.00,,SKC,0.00,VWS V14.01,2013-03-23 06:05:00,
2013-03-23 01:10:00,32.5,24.2,30.06,East,86,1.0,3.0,71,0.00,,SKC,0.00,VWS V14.01,2013-03-23 06:10:00,
2013-03-23 01:15:00,32.4,24.1,30.06,East,85,0.0,1.0,71,0.00,,SKC,0.00,VWS V14.01,2013-03-23 06:15:00,
2013-03-23 01:20:00,32.4,24.4,30.06,East,86,0.0,0.0,72,0.00,,SKC,0.00,VWS V14.01,2013-03-23 06:20:00,
2013-03-23 01:25:00,32.3,24.3,30.07,East,86,0.0,0.0,72,0.00,,SKC,0.00,VWS V14.01,2013-03-23 06:25:00,
2013-03-23 01:30:00,32.3,24.6,30.06,East,86,0.0,0.0,73,0.00,,SKC,0.00,VWS V14.01,2013-03-23 06:30:00,
2013-03-23 01:35:00,32.2,24.5,30.06,East,86,2.0,3.0,73,0.00,,SKC,0.00,VWS V14.01,2013-03-23 06:35:00,
2013-03-23 01:40:00,32.1,24.4,30.05,East,85,5.0,6.0,73,0.00,,SKC,0.00,VWS V14.01,2013-03-23 06:40:00,
2013-03-23 01:45:00,32.2,24.5,30.05,East,79,2.0,4.0,73,0.00,,SKC,0.00,VWS V14.01,2013-03-23 06:45:00,
2013-03-23 01:51:00,32.2,24.5,30.06,East,79,3.0,3.0,73,0.00,,SKC,0.00,VWS V14.01,2013-03-23 06:51:00,
2013-03-23 01:56:00,32.2,24.5,30.06,East,79,0.0,0.0,73,0.00,,SKC,0.00,VWS V14.01,2013-03-23 06:56:00,
2013-03-23 02:01:00,32.2,24.5,30.07,East,79,0.0,1.0,73,0.00,,SKC,0.00,VWS V14.01,2013-03-23 07:01:00,
2013-03-23 02:06:00,32.2,24.5,30.08,East,79,1.0,3.0,73,0.00,,SKC,0.00,VWS V14.01,2013-03-23 07:06:00,
2013-03-23 02:11:00,32.3,24.6,30.08,East,79,1.0,1.0,73,0.00,,SKC,0.00,VWS V14.01,2013-03-23 07:11:00,
2013-03-23 02:16:00,32.3,24.6,30.08,East,79,0.0,1.0,73,0.00,,SKC,0.00,VWS V14.01,2013-03-23 07:16:00,
2013-03-23 02:22:00,32.3,24.6,30.08,East,79,0.0,0.0,73,0.00,,SKC,0.00,VWS V14.01,2013-03-23 07:22:00,
2013-03-23 02:27:00,32.3,24.6,30.08,East,79,0.0,2.0,73,0.00,,SKC,0.00,VWS V14.01,2013-03-23 07:27:00,
2013-03-23 02:32:00,32.2,24.5,30.09,East,79,1.0,3.0,73,0.00,,SKC,0.00,VWS V14.01,2013-03-23 07:32:00,
2013-03-23 02:37:00,32.2,24.5,30.09,East,79,2.0,2.0,73,0.00,,SKC,0.00,VWS V14.01,2013-03-23 07:37:00,
2013-03-23 02:42:00,32.2,24.5,30.08,ENE,78,5.0,5.0,73,0.00,,SKC,0.00,VWS V14.01,2013-03-23 07:42:00,
2013-03-23 02:47:00,32.2,24.5,30.08,ENE,78,5.0,5.0,73,0.00,,SKC,0.00,VWS V14.01,2013-03-23 07:47:00,
2013-03-23 02:52:00,32.3,24.6,30.08,ENE,78,4.0,5.0,73,0.00,,SKC,0.00,VWS V14.01,2013-03-23 07:52:00,
2013-03-23 02:58:00,32.2,24.9,30.07,ENE,78,3.0,4.0,74,0.00,,SKC,0.00,VWS V14.01,2013-03-23 07:58:00,
2013-03-23 03:03:00,32.1,24.4,30.07,ENE,77,4.0,4.0,73,0.00,,SKC,0.00,VWS V14.01,2013-03-23 08:03:00,
2013-03-23 03:08:00,32.1,24.8,30.07,ENE,76,4.0,5.0,74,0.00,,SKC,0.00,VWS V14.01,2013-03-23 08:08:00,
2013-03-23 03:13:00,32.0,24.7,30.08,ENE,76,3.0,5.0,74,0.00,,SKC,0.00,VWS V14.01,2013-03-23 08:13:00,
2013-03-23 03:18:00,32.0,24.7,30.07,ENE,76,4.0,4.0,74,0.00,,SKC,0.00,VWS V14.01,2013-03-23 08:18:00,
2013-03-23 03:23:00,31.9,24.6,30.06,ENE,72,4.0,5.0,74,0.00,,SKC,0.00,VWS V14.01,2013-03-23 08:23:00,
2013-03-23 03:28:00,31.8,24.5,30.07,ENE,71,3.0,6.0,74,0.00,,SKC,0.00,VWS V14.01,2013-03-23 08:28:00,
2013-03-23 03:33:00,31.8,24.5,30.06,ENE,66,4.0,5.0,74,0.00,,SKC,0.00,VWS V14.01,2013-03-23 08:33:00,
2013-03-23 03:38:00,31.7,24.7,30.06,ENE,61,6.0,6.0,75,0.00,,SKC,0.00,VWS V14.01,2013-03-23 08:38:00,
2013-03-23 03:43:00,31.6,24.9,30.05,ENE,61,2.0,4.0,76,0.00,,SKC,0.00,VWS V14.01,2013-03-23 08:43:00,
2013-03-23 03:48:00,31.6,24.9,30.05,ENE,59,4.0,6.0,76,0.00,,SKC,0.00,VWS V14.01,2013-03-23 08:48:00,
2013-03-23 03:53:00,31.6,25.2,30.05,ENE,59,5.0,5.0,77,0.00,,SKC,0.00,VWS V14.01,2013-03-23 08:53:00,
2013-03-23 03:58:00,31.6,25.2,30.04,ENE,59,2.0,3.0,77,0.00,,SKC,0.00,VWS V14.01,2013-03-23 08:58:00,
2013-03-23 04:03:00,31.6,25.2,30.05,ENE,59,4.0,4.0,77,0.00,,SKC,0.00,VWS V14.01,2013-03-23 09:03:00,
2013-03-23 04:08:00,31.6,25.5,30.04,ENE,59,4.0,4.0,78,0.00,,SKC,0.00,VWS V14.01,2013-03-23 09:08:00,
2013-03-23 04:14:00,31.5,25.4,30.05,ENE,62,5.0,5.0,78,0.00,,SKC,0.00,VWS V14.01,2013-03-23 09:14:00,
2013-03-23 04:19:00,31.5,25.4,30.05,ENE,62,4.0,4.0,78,0.00,,SKC,0.00,VWS V14.01,2013-03-23 09:19:00,
2013-03-23 04:24:00,31.6,25.5,30.05,ENE,60,3.0,3.0,78,0.00,,SKC,0.00,VWS V14.01,2013-03-23 09:24:00,
2013-03-23 04:29:00,31.5,25.8,30.06,ENE,60,4.0,5.0,79,0.00,,SKC,0.00,VWS V14.01,2013-03-23 09:29:00,
2013-03-23 04:34:00,31.6,25.9,30.06,ENE,59,2.0,4.0,79,0.00,,SKC,0.00,VWS V14.01,2013-03-23 09:34:00,
2013-03-23 04:39:00,31.5,25.8,30.06,ENE,59,3.0,3.0,79,0.00,,SKC,0.00,VWS V14.01,2013-03-23 09:39:00,
2013-03-23 04:44:00,31.5,25.8,30.07,ENE,59,2.0,4.0,79,0.00,,SKC,0.00,VWS V14.01,2013-03-23 09:44:00,
2013-03-23 04:49:00,31.5,25.8,30.07,ENE,59,3.0,4.0,79,0.00,,SKC,0.00,VWS V14.01,2013-03-23 09:49:00,
2013-03-23 04:54:00,31.5,25.8,30.07,ENE,59,3.0,5.0,79,0.00,,SKC,0.00,VWS V14.01,2013-03-23 09:54:00,
2013-03-23 04:59:00,31.5,26.0,30.07,ENE,59,3.0,3.0,80,0.00,,SKC,0.00,VWS V14.01,2013-03-23 09:59:00,
2013-03-23 05:04:00,31.5,26.0,30.08,ENE,59,2.0,2.0,80,0.00,,SKC,0.00,VWS V14.01,2013-03-23 10:04:00,
2013-03-23 05:09:00,31.5,26.0,30.08,ENE,59,2.0,2.0,80,0.00,,SKC,0.00,VWS V14.01,2013-03-23 10:09:00,
2013-03-23 05:14:00,31.5,26.0,30.08,ENE,59,2.0,2.0,80,0.00,,SKC,0.00,VWS V14.01,2013-03-23 10:14:00,
2013-03-23 05:19:00,31.5,26.0,30.09,ENE,59,0.0,1.0,80,0.00,,SKC,0.00,VWS V14.01,2013-03-23 10:19:00,
2013-03-23 05:25:00,31.5,26.0,30.08,ENE,59,2.0,3.0,80,0.00,,SKC,0.00,VWS V14.01,2013-03-23 10:25:00,
2013-03-23 05:30:00,31.5,26.0,30.09,ENE,59,1.0,1.0,80,0.00,,SKC,0.00,VWS V14.01,2013-03-23 10:30:00,
2013-03-23 05:35:00,31.5,26.0,30.09,ENE,59,3.0,4.0,80,0.00,,SKC,0.00,VWS V14.01,2013-03-23 10:35:00,
2013-03-23 05:40:00,31.4,26.0,30.09,ENE,59,0.0,0.0,80,0.00,,SKC,0.00,VWS V14.01,2013-03-23 10:40:00,
2013-03-23 05:45:00,31.4,26.0,30.10,ENE,59,0.0,0.0,80,0.00,,SKC,0.00,VWS V14.01,2013-03-23 10:45:00,
2013-03-23 05:50:00,31.4,26.0,30.10,ENE,59,0.0,0.0,80,0.00,,SKC,0.00,VWS V14.01,2013-03-23 10:50:00,
2013-03-23 05:55:00,31.4,26.0,30.10,ENE,59,0.0,0.0,80,0.00,,SKC,0.00,VWS V14.01,2013-03-23 10:55:00,
2013-03-23 06:00:00,31.4,26.0,30.09,ENE,59,0.0,0.0,80,0.00,,SKC,0.00,VWS V14.01,2013-03-23 11:00:00,
2013-03-23 06:05:00,31.4,26.0,30.10,ENE,59,2.0,2.0,80,0.00,,SKC,0.00,VWS V14.01,2013-03-23 11:05:00,
2013-03-23 06:10:00,31.4,26.0,30.10,ENE,59,1.0,2.0,80,0.00,,SKC,0.00,VWS V14.01,2013-03-23 11:10:00,
2013-03-23 06:15:00,31.4,26.0,30.10,ENE,59,0.0,0.0,80,0.00,,SKC,0.00,VWS V14.01,2013-03-23 11:15:00,
2013-03-23 06:20:00,31.4,26.0,30.10,ENE,59,1.0,2.0,80,0.00,,SKC,0.00,VWS V14.01,2013-03-23 11:20:00,
2013-03-23 06:25:00,31.4,26.2,30.10,ENE,59,1.0,2.0,81,0.00,,SKC,0.00,VWS V14.01,2013-03-23 11:25:00,
2013-03-23 06:31:00,31.3,26.2,30.09,ENE,59,1.0,1.0,81,0.00,,SKC,0.00,VWS V14.01,2013-03-23 11:31:00,
2013-03-23 06:36:00,31.3,26.2,30.09,ENE,59,2.0,2.0,81,0.00,,SKC,0.00,VWS V14.01,2013-03-23 11:36:00,
2013-03-23 06:41:00,31.2,26.1,30.09,ENE,59,2.0,2.0,81,0.00,,SKC,0.00,VWS V14.01,2013-03-23 11:41:00,
2013-03-23 06:46:00,31.2,26.1,30.10,ENE,59,0.0,0.0,81,0.00,,SKC,0.00,VWS V14.01,2013-03-23 11:46:00,
2013-03-23 06:51:00,31.2,26.1,30.10,ENE,59,0.0,1.0,81,0.00,,SKC,0.00,VWS V14.01,2013-03-23 11:51:00,
2013-03-23 06:56:00,31.1,26.0,30.10,ENE,59,2.0,3.0,81,0.00,,SKC,0.00,VWS V14.01,2013-03-23 11:56:00,
2013-03-23 07:01:00,31.1,26.3,30.10,ENE,58,5.0,5.0,82,0.00,,SKC,0.00,VWS V14.01,2013-03-23 12:01:00,
2013-03-23 07:06:00,31.0,26.2,30.09,ENE,57,5.0,5.0,82,0.00,,SKC,0.00,VWS V14.01,2013-03-23 12:06:00,
2013-03-23 07:11:00,31.0,26.2,30.10,NE,55,5.0,6.0,82,0.00,,SKC,0.00,VWS V14.01,2013-03-23 12:11:00,
2013-03-23 07:16:00,30.9,26.1,30.09,NE,45,6.0,7.0,82,0.00,,SKC,0.00,VWS V14.01,2013-03-23 12:16:00,
2013-03-23 07:21:00,30.9,26.4,30.09,NE,42,5.0,6.0,83,0.00,,SKC,0.00,VWS V14.01,2013-03-23 12:21:00,
2013-03-23 07:27:00,30.8,26.3,30.09,NE,34,4.0,5.0,83,0.00,,SKC,0.00,VWS V14.01,2013-03-23 12:27:00,
2013-03-23 07:32:00,30.8,26.3,30.09,NNE,32,5.0,5.0,83,0.00,,SKC,0.00,VWS V14.01,2013-03-23 12:32:00,
2013-03-23 07:37:00,30.8,26.3,30.09,NNE,27,7.0,7.0,83,0.00,,SKC,0.00,VWS V14.01,2013-03-23 12:37:00,
2013-03-23 07:42:00,30.8,26.3,30.10,NNE,22,6.0,9.0,83,0.00,,SKC,0.00,VWS V14.01,2013-03-23 12:42:00,
2013-03-23 07:47:00,30.8,26.3,30.10,NNE,17,9.0,9.0,83,0.00,,SKC,0.00,VWS V14.01,2013-03-23 12:47:00,
2013-03-23 07:52:00,30.8,26.3,30.10,NNE,18,7.0,9.0,83,0.00,,SKC,0.00,VWS V14.01,2013-03-23 12:52:00,
2013-03-23 07:57:00,30.8,26.5,30.10,NNE,22,5.0,6.0,84,0.00,,SKC,0.00,VWS V14.01,2013-03-23 12:57:00,
2013-03-23 08:02:00,30.9,26.6,30.10,NNE,28,6.0,6.0,84,0.00,,SKC,0.00,VWS V14.01,2013-03-23 13:02:00,
2013-03-23 08:07:00,30.9,26.6,30.09,NNE,32,7.0,9.0,84,0.00,,SKC,0.00,VWS V14.01,2013-03-23 13:07:00,
2013-03-23 08:12:00,31.0,26.7,30.10,NNE,32,7.0,7.0,84,0.00,,SKC,0.00,VWS V14.01,2013-03-23 13:12:00,
2013-03-23 08:17:00,31.0,26.7,30.10,NNE,30,7.0,9.0,84,0.00,,SKC,0.00,VWS V14.01,2013-03-23 13:17:00,
2013-03-23 08:22:00,31.0,26.7,30.10,NE,34,6.0,10.0,84,0.00,,SKC,0.00,VWS V14.01,2013-03-23 13:22:00,
2013-03-23 08:27:00,31.1,26.8,30.09,NNE,28,8.0,10.0,84,0.00,,SKC,0.00,VWS V14.01,2013-03-23 13:27:00,
2013-03-23 08:32:00,31.2,26.9,30.09,NE,43,5.0,7.0,84,0.00,,SKC,0.00,VWS V14.01,2013-03-23 13:32:00,
2013-03-23 08:37:00,31.3,27.0,30.10,NE,40,7.0,11.0,84,0.00,,SKC,0.00,VWS V14.01,2013-03-23 13:37:00,
2013-03-23 08:43:00,31.4,27.1,30.10,NE,53,6.0,6.0,84,0.00,,SKC,0.00,VWS V14.01,2013-03-23 13:43:00,
2013-03-23 08:48:00,31.6,27.3,30.10,NE,45,5.0,6.0,84,0.00,,SKC,0.00,VWS V14.01,2013-03-23 13:48:00,
2013-03-23 08:53:00,31.6,27.3,30.10,NE,44,7.0,10.0,84,0.00,,SKC,0.00,VWS V14.01,2013-03-23 13:53:00,
2013-03-23 08:58:00,31.8,27.2,30.10,NNE,31,8.0,10.0,83,0.00,,SKC,0.00,VWS V14.01,2013-03-23 13:58:00,
2013-03-23 09:03:00,32.0,27.4,30.10,NNE,29,6.0,10.0,83,0.00,,SKC,0.00,VWS V14.01,2013-03-23 14:03:00,
2013-03-23 09:08:00,32.3,27.7,30.11,NE,43,7.0,14.0,83,0.00,,SKC,0.00,VWS V14.01,2013-03-23 14:08:00,
2013-03-23 09:13:00,32.5,27.6,30.11,NE,34,8.0,9.0,82,0.00,,SKC,0.00,VWS V14.01,2013-03-23 14:13:00,
2013-03-23 09:18:00,32.5,27.3,30.12,NE,43,4.0,6.0,81,0.00,,SKC,0.00,VWS V14.01,2013-03-23 14:18:00,
2013-03-23 09:23:00,32.6,27.4,30.12,NE,44,4.0,7.0,81,0.00,,SKC,0.00,VWS V14.01,2013-03-23 14:23:00,
2013-03-23 09:28:00,32.7,27.5,30.13,NE,44,3.0,4.0,81,0.00,,SKC,0.00,VWS V14.01,2013-03-23 14:28:00,
2013-03-23 09:33:00,32.7,27.2,30.12,NNE,31,5.0,5.0,80,0.00,,SKC,0.00,VWS V14.01,2013-03-23 14:33:00,
2013-03-23 09:38:00,32.7,27.2,30.13,NNE,30,3.0,4.0,80,0.00,,SKC,0.00,VWS V14.01,2013-03-23 14:38:00,
2013-03-23 09:44:00,32.8,27.3,30.13,NNE,33,4.0,4.0,80,0.00,,SKC,0.00,VWS V14.01,2013-03-23 14:44:00,
2013-03-23 09:49:00,32.9,27.1,30.13,NE,41,6.0,7.0,79,0.00,,SKC,0.00,VWS V14.01,2013-03-23 14:49:00,
2013-03-23 09:54:00,33.0,27.2,30.13,NE,43,4.0,7.0,79,0.00,,SKC,0.00,VWS V14.01,2013-03-23 14:54:00,
2013-03-23 09:59:00,33.2,27.4,30.13,NNE,27,4.0,7.0,79,0.00,,SKC,0.00,VWS V14.01,2013-03-23 14:59:00,
2013-03-23 10:05:00,33.4,27.6,30.13,NNE,26,9.0,10.0,79,0.00,,SKC,0.00,VWS V14.01,2013-03-23 15:05:00,
2013-03-23 10:10:00,33.6,27.5,30.13,NNE,30,6.0,7.0,78,0.00,,SKC,0.00,VWS V14.01,2013-03-23 15:10:00,
2013-03-23 10:15:00,33.5,27.1,30.14,NNE,14,5.0,5.0,77,0.00,,SKC,0.00,VWS V14.01,2013-03-23 15:15:00,
2013-03-23 10:20:00,33.5,27.4,30.14,NNE,24,7.0,7.0,78,0.00,,SKC,0.00,VWS V14.01,2013-03-23 15:20:00,
2013-03-23 10:25:00,33.6,27.2,30.13,NE,40,8.0,8.0,77,0.00,,SKC,0.00,VWS V14.01,2013-03-23 15:25:00,
2013-03-23 10:30:00,33.8,27.7,30.13,NE,45,5.0,7.0,78,0.00,,SKC,0.00,VWS V14.01,2013-03-23 15:30:00,
2013-03-23 10:35:00,34.0,27.6,30.13,NE,42,5.0,6.0,77,0.00,,SKC,0.00,VWS V14.01,2013-03-23 15:35:00,
2013-03-23 10:40:00,34.1,27.7,30.14,NNE,25,5.0,7.0,77,0.00,,SKC,0.00,VWS V14.01,2013-03-23 15:40:00,
2013-03-23 10:45:00,34.3,27.5,30.14,ENE,57,5.0,5.0,76,0.00,,SKC,0.00,VWS V14.01,2013-03-23 15:45:00,
2013-03-23 10:50:00,34.4,27.3,30.14,NE,43,7.0,9.0,75,0.00,,SKC,0.00,VWS V14.01,2013-03-23 15:50:00,
2013-03-23 10:55:00,34.6,26.9,30.14,NE,51,3.0,10.0,73,0.00,,SKC,0.00,VWS V14.01,2013-03-23 15:55:00,
2013-03-23 11:00:00,34.5,26.1,30.13,NNE,30,6.0,11.0,71,0.00,,SKC,0.00,VWS V14.01,2013-03-23 16:00:00,
2013-03-23 11:05:00,34.5,26.4,30.13,NNE,27,6.0,10.0,72,0.00,,SKC,0.00,VWS V14.01,2013-03-23 16:05:00,
2013-03-23 11:10:00,34.6,26.5,30.13,NNE,32,6.0,7.0,72,0.00,,SKC,0.00,VWS V14.01,2013-03-23 16:10:00,
2013-03-23 11:15:00,34.7,26.3,30.13,ENE,60,7.0,10.0,71,0.00,,SKC,0.00,VWS V14.01,2013-03-23 16:15:00,
2013-03-23 11:20:00,35.0,26.6,30.13,NNE,26,8.0,9.0,71,0.00,,SKC,0.00,VWS V14.01,2013-03-23 16:20:00,
2013-03-23 11:26:00,35.3,26.5,30.12,NE,49,6.0,7.0,70,0.00,,SKC,0.00,VWS V14.01,2013-03-23 16:26:00,
2013-03-23 11:31:00,35.4,26.3,30.13,NE,44,9.0,11.0,69,0.00,,SKC,0.00,VWS V14.01,2013-03-23 16:31:00,
2013-03-23 11:36:00,35.5,26.4,30.13,NNE,13,9.0,10.0,69,0.00,,SKC,0.00,VWS V14.01,2013-03-23 16:36:00,
2013-03-23 11:41:00,35.7,26.5,30.13,North,360,9.0,11.0,69,0.00,,SKC,0.00,VWS V14.01,2013-03-23 16:41:00,
2013-03-23 11:47:00,36.0,27.2,30.12,NNE,17,12.0,13.0,70,0.00,,SKC,0.00,VWS V14.01,2013-03-23 16:47:00,
2013-03-23 11:52:00,35.8,27.0,30.12,NNE,15,6.0,9.0,70,0.00,,SKC,0.00,VWS V14.01,2013-03-23 16:52:00,
2013-03-23 11:57:00,36.0,27.2,30.12,NNE,19,7.0,12.0,70,0.00,,SKC,0.00,VWS V14.01,2013-03-23 16:57:00,
2013-03-23 12:02:00,36.1,26.6,30.12,NE,42,9.0,11.0,68,0.00,,SKC,0.00,VWS V14.01,2013-03-23 17:02:00,
2013-03-23 12:07:00,36.1,26.2,30.11,NNE,23,11.0,13.0,67,0.00,,SKC,0.00,VWS V14.01,2013-03-23 17:07:00,
2013-03-23 12:12:00,36.2,26.3,30.10,NNE,13,7.0,9.0,67,0.00,,SKC,0.00,VWS V14.01,2013-03-23 17:12:00,
2013-03-23 12:17:00,36.5,26.6,30.11,NE,41,13.0,15.0,67,0.00,,SKC,0.00,VWS V14.01,2013-03-23 17:17:00,
2013-03-23 12:22:00,36.5,26.2,30.10,North,9,14.0,16.0,66,0.00,,SKC,0.00,VWS V14.01,2013-03-23 17:22:00,
2013-03-23 12:28:00,36.5,26.2,30.10,NE,40,10.0,11.0,66,0.00,,SKC,0.00,VWS V14.01,2013-03-23 17:28:00,
2013-03-23 12:33:00,36.5,25.9,30.10,North,9,9.0,11.0,65,0.00,,SKC,0.00,VWS V14.01,2013-03-23 17:33:00,
2013-03-23 12:38:00,37.0,26.0,30.10,North,360,10.0,13.0,64,0.00,,SKC,0.00,VWS V14.01,2013-03-23 17:38:00,
2013-03-23 12:43:00,37.2,25.4,30.09,NE,36,10.0,13.0,62,0.00,,SKC,0.00,VWS V14.01,2013-03-23 17:43:00,
2013-03-23 12:48:00,37.1,25.3,30.09,NE,38,12.0,17.0,62,0.00,,SKC,0.00,VWS V14.01,2013-03-23 17:48:00,
2013-03-23 12:53:00,37.4,26.0,30.09,NNE,17,11.0,12.0,63,0.00,,SKC,0.00,VWS V14.01,2013-03-23 17:53:00,
2013-03-23 12:58:00,37.6,25.8,30.09,NE,36,10.0,10.0,62,0.00,,SKC,0.00,VWS V14.01,2013-03-23 17:58:00,
2013-03-23 13:03:00,37.6,25.4,30.09,NE,34,11.0,17.0,61,0.00,,SKC,0.00,VWS V14.01,2013-03-23 18:03:00,
2013-03-23 13:08:00,37.1,24.9,30.09,NNE,30,9.0,14.0,61,0.00,,SKC,0.00,VWS V14.01,2013-03-23 18:08:00,
2013-03-23 13:13:00,37.0,24.8,30.08,ENE,59,12.0,13.0,61,0.00,,SKC,0.00,VWS V14.01,2013-03-23 18:13:00,
2013-03-23 13:19:00,37.1,24.9,30.08,NNE,19,8.0,12.0,61,0.00,,SKC,0.00,VWS V14.01,2013-03-23 18:19:00,
2013-03-23 13:24:00,37.2,25.0,30.08,NE,42,12.0,12.0,61,0.00,,SKC,0.00,VWS V14.01,2013-03-23 18:24:00,
2013-03-23 13:29:00,37.5,25.3,30.09,NE,36,10.0,12.0,61,0.00,,SKC,0.00,VWS V14.01,2013-03-23 18:29:00,
2013-03-23 13:34:00,37.5,24.9,30.08,NE,48,12.0,14.0,60,0.00,,SKC,0.00,VWS V14.01,2013-03-23 18:34:00,
2013-03-23 13:39:00,37.4,24.8,30.08,ENE,64,9.0,16.0,60,0.00,,SKC,0.00,VWS V14.01,2013-03-23 18:39:00,
2013-03-23 13:44:00,37.2,24.6,30.08,NE,34,9.0,14.0,60,0.00,,SKC,0.00,VWS V14.01,2013-03-23 18:44:00,
2013-03-23 13:49:00,37.3,25.5,30.07,NNE,30,11.0,14.0,62,0.00,,SKC,0.00,VWS V14.01,2013-03-23 18:49:00,
2013-03-23 13:55:00,37.0,24.8,30.07,North,5,11.0,13.0,61,0.00,,SKC,0.00,VWS V14.01,2013-03-23 18:55:00,
2013-03-23 14:00:00,36.9,25.1,30.07,ENE,67,11.0,12.0,62,0.00,,SKC,0.00,VWS V14.01,2013-03-23 19:00:00,
2013-03-23 14:05:00,36.7,25.7,30.07,ENE,59,8.0,10.0,64,0.00,,SKC,0.00,VWS V14.01,2013-03-23 19:05:00,
2013-03-23 14:10:00,36.4,26.1,30.07,NNE,21,16.0,16.0,66,0.00,,SKC,0.00,VWS V14.01,2013-03-23 19:10:00,
2013-03-23 14:15:00,36.0,26.5,30.07,NE,35,10.0,13.0,68,0.00,,SKC,0.00,VWS V14.01,2013-03-23 19:15:00,
2013-03-23 14:20:00,36.0,27.2,30.07,NE,49,13.0,18.0,70,0.00,,SKC,0.00,VWS V14.01,2013-03-23 19:20:00,
2013-03-23 14:25:00,35.7,26.9,30.07,NE,55,11.0,11.0,70,0.00,,SKC,0.00,VWS V14.01,2013-03-23 19:25:00,
2013-03-23 14:30:00,35.7,27.6,30.07,NNE,20,9.0,16.0,72,0.00,,SKC,0.00,VWS V14.01,2013-03-23 19:30:00,
2013-03-23 14:35:00,35.6,27.5,30.06,NNE,19,6.0,12.0,72,0.00,,SKC,0.00,VWS V14.01,2013-03-23 19:35:00,
2013-03-23 14:40:00,35.6,27.8,30.07,NE,51,7.0,11.0,73,0.00,,SKC,0.00,VWS V14.01,2013-03-23 19:40:00,
2013-03-23 14:45:00,35.5,27.7,30.06,NE,50,11.0,11.0,73,0.00,,SKC,0.00,VWS V14.01,2013-03-23 19:45:00,
2013-03-23 14:50:00,35.3,27.5,30.06,NNE,27,11.0,13.0,73,0.00,,SKC,0.00,VWS V14.01,2013-03-23 19:50:00,
2013-03-23 14:55:00,35.2,27.4,30.06,NE,42,11.0,13.0,73,0.00,,SKC,0.00,VWS V14.01,2013-03-23 19:55:00,
2013-03-23 15:01:00,35.0,27.2,30.06,NNE,29,7.0,10.0,73,0.00,,SKC,0.00,VWS V14.01,2013-03-23 20:01:00,
2013-03-23 15:06:00,35.0,27.6,30.06,NNE,16,9.0,9.0,74,0.00,,SKC,0.00,VWS V14.01,2013-03-23 20:06:00,
2013-03-23 15:11:00,35.1,28.0,30.06,NNE,13,7.0,11.0,75,0.00,,SKC,0.00,VWS V14.01,2013-03-23 20:11:00,
2013-03-23 15:16:00,34.8,28.0,30.06,NNW,348,11.0,13.0,76,0.00,,SKC,0.00,VWS V14.01,2013-03-23 20:16:00,
2013-03-23 15:21:00,34.4,28.0,30.06,NE,40,11.0,11.0,77,0.00,,SKC,0.00,VWS V14.01,2013-03-23 20:21:00,
2013-03-23 15:26:00,34.3,28.5,30.06,North,355,8.0,11.0,79,0.00,,SKC,0.00,VWS V14.01,2013-03-23 20:26:00,
2013-03-23 15:32:00,34.4,28.9,30.06,NE,34,4.0,11.0,80,0.00,,SKC,0.00,VWS V14.01,2013-03-23 20:32:00,
2013-03-23 15:37:00,34.5,29.0,30.06,North,11,6.0,12.0,80,0.00,,SKC,0.00,VWS V14.01,2013-03-23 20:37:00,
2013-03-23 15:42:00,34.1,29.2,30.06,NNE,12,14.0,15.0,82,0.00,,SKC,0.00,VWS V14.01,2013-03-23 20:42:00,
2013-03-23 15:47:00,33.7,29.1,30.06,NNE,12,10.0,17.0,83,0.00,,SKC,0.00,VWS V14.01,2013-03-23 20:47:00,
2013-03-23 15:52:00,33.5,29.5,30.06,North,355,13.0,15.0,85,0.00,,SKC,0.00,VWS V14.01,2013-03-23 20:52:00,
2013-03-23 15:58:00,33.5,29.8,30.06,North,355,10.0,10.0,86,0.00,,SKC,0.00,VWS V14.01,2013-03-23 20:58:00,
2013-03-23 16:03:00,33.4,29.7,30.06,NNE,23,14.0,14.0,86,0.00,,SKC,0.00,VWS V14.01,2013-03-23 21:03:00,
2013-03-23 16:08:00,33.0,29.6,30.06,North,360,8.0,13.0,87,0.00,,SKC,0.00,VWS V14.01,2013-03-23 21:08:00,
2013-03-23 16:13:00,32.9,29.5,30.06,North,360,10.0,10.0,87,0.00,,SKC,0.00,VWS V14.01,2013-03-23 21:13:00,
2013-03-23 16:18:00,32.8,29.6,30.07,NNE,17,11.0,12.0,88,0.00,,SKC,0.00,VWS V14.01,2013-03-23 21:18:00,
2013-03-23 16:23:00,32.7,29.5,30.06,NNE,13,11.0,11.0,88,0.00,,SKC,0.00,VWS V14.01,2013-03-23 21:23:00,
2013-03-23 16:28:00,32.6,29.7,30.06,NNE,20,7.0,10.0,89,0.00,,SKC,0.00,VWS V14.01,2013-03-23 21:28:00,
2013-03-23 16:33:00,32.6,29.7,30.07,North,351,9.0,11.0,89,0.00,,SKC,0.00,VWS V14.01,2013-03-23 21:33:00,
2013-03-23 16:38:00,32.6,30.0,30.07,North,5,16.0,18.0,90,0.00,,SKC,0.00,VWS V14.01,2013-03-23 21:38:00,
2013-03-23 16:43:00,32.5,29.9,30.06,NNE,22,11.0,12.0,90,0.00,,SKC,0.00,VWS V14.01,2013-03-23 21:43:00,
2013-03-23 16:49:00,32.3,29.7,30.06,NE,38,15.0,15.0,90,0.00,,SKC,0.00,VWS V14.01,2013-03-23 21:49:00,
2013-03-23 16:54:00,32.2,29.6,30.06,NNE,23,10.0,15.0,90,0.00,,SKC,0.00,VWS V14.01,2013-03-23 21:54:00,
2013-03-23 16:59:00,32.2,29.6,30.07,NNE,23,5.0,6.0,90,0.00,,SKC,0.00,VWS V14.01,2013-03-23 21:59:00,
2013-03-23 17:04:00,32.3,29.7,30.07,NNE,13,7.0,15.0,90,0.00,,SKC,0.00,VWS V14.01,2013-03-23 22:04:00,
2013-03-23 17:09:00,32.1,29.5,30.07,NNE,20,10.0,14.0,90,0.00,,SKC,0.00,VWS V14.01,2013-03-23 22:09:00,
2013-03-23 17:14:00,32.1,29.5,30.07,North,10,7.0,10.0,90,0.00,,SKC,0.00,VWS V14.01,2013-03-23 22:14:00,
2013-03-23 17:19:00,31.9,29.3,30.07,NNE,16,11.0,12.0,90,0.00,,SKC,0.00,VWS V14.01,2013-03-23 22:19:00,
2013-03-23 17:24:00,31.7,29.1,30.07,North,11,12.0,13.0,90,0.00,,SKC,0.00,VWS V14.01,2013-03-23 22:24:00,
2013-03-23 17:29:00,31.7,29.1,30.08,NNE,22,14.0,17.0,90,0.00,,SKC,0.00,VWS V14.01,2013-03-23 22:29:00,
2013-03-23 17:34:00,31.6,29.3,30.08,NNE,15,12.0,12.0,91,0.00,,SKC,0.00,VWS V14.01,2013-03-23 22:34:00,
2013-03-23 17:39:00,31.6,29.3,30.08,NNE,13,10.0,14.0,91,0.00,,SKC,0.00,VWS V14.01,2013-03-23 22:39:00,
2013-03-23 17:44:00,31.6,29.3,30.08,North,9,11.0,11.0,91,0.00,,SKC,0.00,VWS V14.01,2013-03-23 22:44:00,
2013-03-23 17:50:00,31.6,29.3,30.08,North,5,16.0,16.0,91,0.00,,SKC,0.00,VWS V14.01,2013-03-23 22:50:00,
2013-03-23 17:55:00,31.5,29.2,30.08,North,5,7.0,8.0,91,0.00,,SKC,0.00,VWS V14.01,2013-03-23 22:55:00,
2013-03-23 18:00:00,31.6,29.3,30.08,North,355,5.0,9.0,91,0.00,,SKC,0.00,VWS V14.01,2013-03-23 23:00:00,
2013-03-23 18:05:00,31.7,29.4,30.08,NNE,20,10.0,13.0,91,0.00,,SKC,0.00,VWS V14.01,2013-03-23 23:05:00,
2013-03-23 18:10:00,31.7,29.6,30.08,North,5,12.0,14.0,92,0.00,,SKC,0.00,VWS V14.01,2013-03-23 23:10:00,
2013-03-23 18:15:00,31.5,29.2,30.08,NNE,19,11.0,16.0,91,0.00,,SKC,0.00,VWS V14.01,2013-03-23 23:15:00,
2013-03-23 18:20:00,31.5,29.5,30.08,North,355,11.0,11.0,92,0.00,,SKC,0.00,VWS V14.01,2013-03-23 23:20:00,
2013-03-23 18:25:00,31.5,29.5,30.08,NNE,19,12.0,12.0,92,0.00,,SKC,0.00,VWS V14.01,2013-03-23 23:25:00,
2013-03-23 18:30:00,31.5,29.5,30.08,NNE,16,13.0,14.0,92,0.00,,SKC,0.00,VWS V14.01,2013-03-23 23:30:00,
2013-03-23 18:35:00,31.4,29.4,30.08,North,11,6.0,12.0,92,0.00,,SKC,0.00,VWS V14.01,2013-03-23 23:35:00,
2013-03-23 18:40:00,31.4,29.4,30.08,North,5,6.0,12.0,92,0.00,,SKC,0.00,VWS V14.01,2013-03-23 23:40:00,
2013-03-23 18:45:00,31.4,29.4,30.09,NNE,15,5.0,12.0,92,0.00,,SKC,0.00,VWS V14.01,2013-03-23 23:45:00,
2013-03-23 18:50:00,31.3,29.2,30.09,NNE,30,12.0,12.0,92,0.00,,SKC,0.00,VWS V14.01,2013-03-23 23:50:00,
2013-03-23 18:55:00,31.2,29.1,30.09,North,355,9.0,20.0,92,0.00,,SKC,0.00,VWS V14.01,2013-03-23 23:55:00,
2013-03-23 19:00:00,31.0,29.0,30.09,NE,36,12.0,15.0,92,0.00,,SKC,0.00,VWS V14.01,2013-03-24 00:00:00,
2013-03-23 19:06:00,30.8,28.8,30.09,North,355,6.0,15.0,92,0.00,,SKC,0.00,VWS V14.01,2013-03-24 00:06:00,
2013-03-23 19:11:00,30.8,28.8,30.09,North,350,6.0,13.0,92,0.00,,SKC,0.00,VWS V14.01,2013-03-24 00:11:00,
2013-03-23 19:16:00,30.6,28.6,30.09,North,360,5.0,6.0,92,0.00,,SKC,0.00,VWS V14.01,2013-03-24 00:16:00,
2013-03-23 19:21:00,30.5,28.5,30.10,NNE,30,11.0,11.0,92,0.00,,SKC,0.00,VWS V14.01,2013-03-24 00:21:00,
2013-03-23 19:26:00,30.5,28.5,30.10,North,349,12.0,12.0,92,0.00,,SKC,0.00,VWS V14.01,2013-03-24 00:26:00,
2013-03-23 19:32:00,30.4,28.4,30.11,NNE,12,6.0,12.0,92,0.00,,SKC,0.00,VWS V14.01,2013-03-24 00:32:00,
2013-03-23 19:37:00,30.3,28.5,30.11,North,360,12.0,16.0,93,0.00,,SKC,0.00,VWS V14.01,2013-03-24 00:37:00,
2013-03-23 19:42:00,30.2,28.4,30.11,North,5,10.0,14.0,93,0.00,,SKC,0.00,VWS V14.01,2013-03-24 00:42:00,
2013-03-23 19:47:00,30.1,28.1,30.11,NNE,12,6.0,14.0,92,0.00,,SKC,0.00,VWS V14.01,2013-03-24 00:47:00,
2013-03-23 19:52:00,30.0,28.2,30.11,North,11,8.0,9.0,93,0.00,,SKC,0.00,VWS V14.01,2013-03-24 00:52:00,
2013-03-23 19:57:00,29.9,28.1,30.11,North,5,9.0,13.0,93,0.00,,SKC,0.00,VWS V14.01,2013-03-24 00:57:00,
2013-03-23 20:03:00,29.9,28.1,30.11,NNE,23,10.0,11.0,93,0.00,,SKC,0.00,VWS V14.01,2013-03-24 01:03:00,
2013-03-23 20:08:00,29.9,28.1,30.12,North,355,9.0,14.0,93,0.00,,SKC,0.00,VWS V14.01,2013-03-24 01:08:00,
2013-03-23 20:13:00,29.9,28.1,30.11,NNE,16,7.0,11.0,93,0.00,,SKC,0.00,VWS V14.01,2013-03-24 01:13:00,
2013-03-23 20:18:00,29.9,28.1,30.11,NNE,23,7.0,10.0,93,0.00,,SKC,0.00,VWS V14.01,2013-03-24 01:18:00,
2013-03-23 20:23:00,29.9,28.1,30.11,NNE,15,10.0,11.0,93,0.00,,SKC,0.00,VWS V14.01,2013-03-24 01:23:00,
2013-03-23 20:28:00,30.0,28.2,30.11,North,5,3.0,7.0,93,0.00,,SKC,0.00,VWS V14.01,2013-03-24 01:28:00,
2013-03-23 20:33:00,30.1,28.3,30.11,NNE,14,8.0,10.0,93,0.00,,SKC,0.00,VWS V14.01,2013-03-24 01:33:00,
2013-03-23 20:38:00,30.1,28.3,30.11,NNE,27,7.0,12.0,93,0.00,,SKC,0.00,VWS V14.01,2013-03-24 01:38:00,
2013-03-23 20:43:00,30.1,28.3,30.11,NNE,17,6.0,13.0,93,0.00,,SKC,0.00,VWS V14.01,2013-03-24 01:43:00,
2013-03-23 20:48:00,30.1,28.3,30.11,NNE,22,6.0,10.0,93,0.00,,SKC,0.00,VWS V14.01,2013-03-24 01:48:00,
2013-03-23 20:54:00,30.1,28.3,30.11,NNE,12,7.0,9.0,93,0.00,,SKC,0.00,VWS V14.01,2013-03-24 01:54:00,
2013-03-23 20:59:00,30.2,28.4,30.11,North,360,11.0,11.0,93,0.00,,SKC,0.00,VWS V14.01,2013-03-24 01:59:00,
2013-03-23 21:04:00,30.2,28.4,30.10,NE,35,11.0,11.0,93,0.00,,SKC,0.00,VWS V14.01,2013-03-24 02:04:00,
2013-03-23 21:09:00,30.2,28.4,30.10,NNE,28,11.0,12.0,93,0.00,,SKC,0.00,VWS V14.01,2013-03-24 02:09:00,
2013-03-23 21:14:00,30.1,28.3,30.10,North,5,7.0,13.0,93,0.00,,SKC,0.00,VWS V14.01,2013-03-24 02:14:00,
2013-03-23 21:19:00,30.1,28.3,30.10,North,11,11.0,14.0,93,0.00,,SKC,0.00,VWS V14.01,2013-03-24 02:19:00,
2013-03-23 21:24:00,30.1,28.3,30.10,NNE,17,8.0,12.0,93,0.00,,SKC,0.00,VWS V14.01,2013-03-24 02:24:00,
2013-03-23 21:30:00,30.0,28.2,30.10,NNE,17,7.0,12.0,93,0.00,,SKC,0.00,VWS V14.01,2013-03-24 02:30:00,
2013-03-23 21:35:00,29.9,28.1,30.10,NNE,22,10.0,12.0,93,0.00,,SKC,0.00,VWS V14.01,2013-03-24 02:35:00,
2013-03-23 21:40:00,29.9,28.1,30.10,NNE,12,7.0,15.0,93,0.00,,SKC,0.00,VWS V14.01,2013-03-24 02:40:00,
2013-03-23 21:45:00,29.8,28.0,30.10,North,5,6.0,10.0,93,0.00,,SKC,0.00,VWS V14.01,2013-03-24 02:45:00,
2013-03-23 21:50:00,29.8,28.0,30.10,NNE,19,10.0,11.0,93,0.00,,SKC,0.00,VWS V14.01,2013-03-24 02:50:00,
2013-03-23 21:55:00,29.7,27.9,30.10,NNE,24,12.0,15.0,93,0.00,,SKC,0.00,VWS V14.01,2013-03-24 02:55:00,
2013-03-23 22:00:00,29.6,27.8,30.10,NNE,24,9.0,11.0,93,0.00,,SKC,0.00,VWS V14.01,2013-03-24 03:00:00,
2013-03-23 22:05:00,29.5,27.7,30.11,North,10,9.0,12.0,93,0.00,,SKC,0.00,VWS V14.01,2013-03-24 03:05:00,
2013-03-23 22:10:00,29.4,27.6,30.10,North,5,9.0,14.0,93,0.00,,SKC,0.00,VWS V14.01,2013-03-24 03:10:00,
2013-03-23 22:15:00,29.4,27.6,30.11,North,5,7.0,8.0,93,0.00,,SKC,0.00,VWS V14.01,2013-03-24 03:15:00,
2013-03-23 22:20:00,29.3,27.5,30.11,North,360,9.0,9.0,93,0.00,,SKC,0.00,VWS V14.01,2013-03-24 03:20:00,
2013-03-23 22:26:00,29.3,27.5,30.11,North,355,10.0,10.0,93,0.00,,SKC,0.00,VWS V14.01,2013-03-24 03:26:00,
2013-03-23 22:31:00,29.2,27.4,30.11,NNW,348,5.0,12.0,93,0.00,,SKC,0.00,VWS V14.01,2013-03-24 03:31:00,
2013-03-23 22:36:00,29.2,27.4,30.11,NNE,19,8.0,9.0,93,0.00,,SKC,0.00,VWS V14.01,2013-03-24 03:36:00,
2013-03-23 22:41:00,29.2,27.4,30.10,NNE,16,10.0,10.0,93,0.00,,SKC,0.00,VWS V14.01,2013-03-24 03:41:00,
2013-03-23 22:46:00,29.3,27.5,30.10,NNE,32,13.0,13.0,93,0.00,,SKC,0.00,VWS V14.01,2013-03-24 03:46:00,
2013-03-23 22:51:00,29.3,27.5,30.10,NNE,21,16.0,16.0,93,0.00,,SKC,0.00,VWS V14.01,2013-03-24 03:51:00,
2013-03-23 22:56:00,29.3,27.5,30.09,North,5,11.0,11.0,93,0.00,,SKC,0.00,VWS V14.01,2013-03-24 03:56:00,
2013-03-23 23:00:00,29.4,27.6,30.10,NNE,20,11.0,13.0,93,0.00,,SKC,0.00,VWS V14.01,2013-03-24 04:00:00,
2013-03-23 23:02:00,29.4,27.6,30.09,NNE,26,14.0,16.0,93,0.00,,SKC,0.00,VWS V14.01,2013-03-24 04:02:00,
2013-03-23 23:07:00,29.4,27.6,30.09,North,351,11.0,14.0,93,0.00,,SKC,0.00,VWS V14.01,2013-03-24 04:07:00,
2013-03-23 23:13:00,29.4,27.6,30.09,NNE,16,10.0,16.0,93,0.00,,SKC,0.00,VWS V14.01,2013-03-24 04:13:00,
2013-03-23 23:18:00,29.4,27.6,30.09,NNE,30,11.0,15.0,93,0.00,,SKC,0.00,VWS V14.01,2013-03-24 04:18:00,
2013-03-23 23:23:00,29.4,27.6,30.10,NNE,19,9.0,13.0,93,0.00,,SKC,0.00,VWS V14.01,2013-03-24 04:23:00,
2013-03-23 23:28:00,29.4,27.6,30.10,North,355,7.0,10.0,93,0.00,,SKC,0.00,VWS V14.01,2013-03-24 04:28:00,
2013-03-23 23:33:00,29.5,27.7,30.11,NNE,22,8.0,12.0,93,0.00,,SKC,0.00,VWS V14.01,2013-03-24 04:33:00,
2013-03-23 23:38:00,29.5,27.7,30.11,NNE,32,12.0,13.0,93,0.00,,SKC,0.00,VWS V14.01,2013-03-24 04:38:00,
2013-03-23 23:43:00,29.6,27.8,30.11,North,5,12.0,13.0,93,0.00,,SKC,0.00,VWS V14.01,2013-03-24 04:43:00,
2013-03-23 23:48:00,29.6,27.8,30.11,NNE,13,7.0,13.0,93,0.00,,SKC,0.00,VWS V14.01,2013-03-24 04:48:00,
2013-03-23 23:53:00,29.7,27.9,30.11,NNW,348,5.0,10.0,93,0.00,,SKC,0.00,VWS V14.01,2013-03-24 04:53:00,
2013-03-23 23:58:00,29.7,27.9,30.11,NNE,23,10.0,10.0,93,0.00,,SKC,0.00,VWS V14.01,2013-03-24 04:58:00,